createdAt,value
2023-03-31T00:02:14.006Z,10.25
2023-03-31T00:04:46.448Z,10.23
2023-03-31T00:07:15.022Z,10.21
2023-03-31T00:09:46.089Z,10.19
2023-03-31T00:12:14.759Z,10.20
2023-03-31T00:14:42.292Z,10.19
2023-03-31T00:17:10.660Z,10.17
2023-03-31T00:19:37.357Z,10.18
2023-03-31T00:22:05.471Z,10.18
2023-03-31T00:24:33.205Z,10.16
2023-03-31T00:27:04.909Z,10.13
2023-03-31T00:29:33.670Z,10.08
2023-03-31T00:32:00.616Z,10.03
2023-03-31T00:34:27.799Z,10.03
2023-03-31T00:36:56.683Z,9.98
2023-03-31T00:39:24.728Z,9.92
2023-03-31T00:41:51.407Z,9.89
2023-03-31T00:44:27.723Z,9.90
2023-03-31T00:47:02.266Z,9.90
2023-03-31T00:49:33.822Z,9.89
2023-03-31T00:52:06.626Z,9.87
2023-03-31T00:54:35.976Z,9.83
2023-03-31T00:57:06.777Z,9.82
2023-03-31T00:59:39.614Z,9.76
2023-03-31T01:02:06.812Z,9.71
2023-03-31T01:04:43.054Z,9.67
2023-03-31T01:07:25.793Z,9.64
2023-03-31T01:09:55.726Z,9.63
2023-03-31T01:12:23.218Z,9.58
2023-03-31T01:14:51.188Z,9.53
2023-03-31T01:17:21.626Z,9.46
2023-03-31T01:20:07.117Z,9.38
2023-03-31T01:23:07.955Z,9.39
2023-03-31T01:26:02.794Z,9.38
2023-03-31T01:28:38.249Z,9.39
2023-03-31T01:31:16.936Z,9.36
2023-03-31T01:33:59.468Z,9.35
2023-03-31T01:37:04.741Z,9.36
2023-03-31T01:39:46.169Z,9.39
2023-03-31T01:42:21.739Z,9.46
2023-03-31T01:45:19.982Z,9.48
2023-03-31T01:47:59.768Z,9.50
2023-03-31T01:50:35.375Z,9.50
2023-03-31T01:53:15.519Z,9.51
2023-03-31T01:56:09.562Z,9.54
2023-03-31T01:58:44.312Z,9.54
2023-03-31T02:01:34.488Z,9.57
2023-03-31T02:04:14.765Z,9.60
2023-03-31T02:06:46.877Z,9.61
2023-03-31T02:09:18.353Z,9.60
2023-03-31T02:11:47.018Z,9.59
2023-03-31T02:14:18.875Z,9.61
2023-03-31T02:16:47.604Z,9.61
2023-03-31T02:19:18.830Z,9.59
2023-03-31T02:21:49.805Z,9.59
2023-03-31T02:24:19.362Z,9.58
2023-03-31T02:26:53.875Z,9.57
2023-03-31T02:29:20.923Z,9.52
2023-03-31T02:31:50.618Z,9.52
2023-03-31T02:34:17.339Z,9.51
2023-03-31T02:36:45.723Z,9.51
2023-03-31T02:39:18.057Z,9.49
2023-03-31T02:41:45.124Z,9.46
2023-03-31T02:44:12.468Z,9.45
2023-03-31T02:46:41.044Z,9.43
2023-03-31T02:49:12.013Z,9.40
2023-03-31T02:52:06.711Z,9.36
2023-03-31T02:55:11.354Z,9.32
2023-03-31T02:57:47.123Z,9.29
2023-03-31T03:00:14.260Z,9.28
2023-03-31T03:03:14.668Z,9.29
2023-03-31T03:05:49.960Z,9.24
2023-03-31T03:08:49.156Z,9.21
2023-03-31T03:11:27.617Z,9.17
2023-03-31T03:14:17.345Z,9.16
2023-03-31T03:16:49.966Z,9.13
2023-03-31T03:19:22.359Z,9.06
2023-03-31T03:21:49.031Z,8.98
2023-03-31T03:24:17.080Z,8.89
2023-03-31T03:26:44.993Z,8.72
2023-03-31T03:29:15.266Z,8.61
2023-03-31T03:31:42.771Z,8.51
2023-03-31T03:34:09.825Z,8.42
2023-03-31T03:36:37.877Z,8.33
2023-03-31T03:39:07.656Z,8.25
2023-03-31T03:41:34.604Z,8.23
2023-03-31T03:44:01.490Z,8.18
2023-03-31T03:46:28.235Z,8.13
2023-03-31T03:48:55.997Z,8.10
2023-03-31T03:51:23.263Z,8.06
2023-03-31T03:53:49.959Z,7.97
2023-03-31T03:56:16.570Z,7.88
2023-03-31T03:58:43.150Z,7.83
2023-03-31T04:01:09.782Z,7.76
2023-03-31T04:03:36.475Z,7.69
2023-03-31T04:06:03.158Z,7.63
2023-03-31T04:08:29.706Z,7.63
2023-03-31T04:10:56.591Z,7.61
2023-03-31T04:13:23.168Z,7.63
2023-03-31T04:15:49.825Z,7.55
2023-03-31T04:18:25.673Z,7.49
2023-03-31T04:21:16.847Z,7.45
2023-03-31T04:23:46.874Z,7.36
2023-03-31T04:26:15.392Z,7.33
2023-03-31T04:28:50.737Z,7.28
2023-03-31T04:31:25.342Z,7.18
2023-03-31T04:33:55.579Z,7.16
2023-03-31T04:36:22.572Z,7.09
2023-03-31T04:38:51.004Z,7.09
2023-03-31T04:41:17.988Z,7.11
2023-03-31T04:43:45.397Z,7.08
2023-03-31T04:46:12.203Z,7.10
2023-03-31T04:48:39.060Z,7.14
2023-03-31T04:51:06.303Z,7.10
2023-03-31T04:53:32.968Z,7.09
2023-03-31T04:55:59.721Z,7.11
2023-03-31T04:58:26.308Z,7.10
2023-03-31T05:00:53.210Z,7.11
2023-03-31T05:03:20.732Z,7.08
2023-03-31T05:05:48.527Z,7.07
2023-03-31T05:08:15.376Z,7.06
2023-03-31T05:10:42.008Z,7.10
2023-03-31T05:13:11.389Z,7.17
2023-03-31T05:15:39.575Z,7.23
2023-03-31T05:18:07.256Z,7.32
2023-03-31T05:20:33.941Z,7.46
2023-03-31T05:23:00.634Z,7.55
2023-03-31T05:25:32.619Z,7.66
2023-03-31T05:28:00.116Z,7.77
2023-03-31T05:30:27.851Z,7.88
2023-03-31T05:32:54.903Z,7.98
2023-03-31T05:35:21.894Z,8.08
2023-03-31T05:37:48.649Z,8.18
2023-03-31T05:40:15.404Z,8.31
2023-03-31T05:42:42.050Z,8.43
2023-03-31T05:45:09.457Z,8.54
2023-03-31T05:47:36.776Z,8.66
2023-03-31T05:50:07.785Z,8.77
2023-03-31T05:52:35.624Z,8.93
2023-03-31T05:55:02.551Z,9.06
2023-03-31T05:57:29.145Z,9.17
2023-03-31T05:59:55.839Z,9.29
2023-03-31T06:02:22.595Z,9.42
2023-03-31T06:04:50.253Z,9.51
2023-03-31T06:07:17.895Z,9.61
2023-03-31T06:09:45.724Z,9.70
2023-03-31T06:12:12.300Z,9.77
2023-03-31T06:14:38.905Z,9.84
2023-03-31T06:17:05.462Z,9.92
2023-03-31T06:19:32.060Z,10.00
2023-03-31T06:21:58.689Z,10.13
2023-03-31T06:24:25.512Z,10.21
2023-03-31T06:26:53.768Z,10.31
2023-03-31T06:29:20.808Z,10.43
2023-03-31T06:31:47.424Z,10.50
2023-03-31T06:34:14.039Z,10.56
2023-03-31T06:36:41.446Z,10.65
2023-03-31T06:39:08.038Z,10.75
2023-03-31T06:41:34.692Z,10.83
2023-03-31T06:44:01.268Z,10.92
2023-03-31T06:46:27.958Z,11.03
2023-03-31T06:48:54.586Z,11.12
2023-03-31T06:51:21.194Z,11.20
2023-03-31T06:53:47.784Z,11.30
2023-03-31T06:56:14.474Z,11.39
2023-03-31T06:58:41.059Z,11.48
2023-03-31T07:01:08.245Z,11.62
2023-03-31T07:03:35.618Z,11.80
2023-03-31T07:06:02.310Z,11.92
2023-03-31T07:08:28.910Z,12.00
2023-03-31T07:10:58.024Z,12.03
2023-03-31T07:13:25.840Z,12.12
2023-03-31T07:15:52.470Z,12.19
2023-03-31T07:18:19.676Z,12.28
2023-03-31T07:20:50.520Z,12.37
2023-03-31T07:23:18.537Z,12.46
2023-03-31T07:25:46.961Z,12.43
2023-03-31T07:28:13.560Z,12.43
2023-03-31T07:30:41.371Z,12.46
2023-03-31T07:33:08.276Z,12.53
2023-03-31T07:35:38.863Z,12.61
2023-03-31T07:38:05.709Z,12.68
2023-03-31T07:40:32.434Z,12.77
2023-03-31T07:42:59.018Z,12.88
2023-03-31T07:45:26.855Z,13.01
2023-03-31T07:47:54.085Z,13.12
2023-03-31T07:50:21.642Z,13.24
2023-03-31T07:52:48.402Z,13.21
2023-03-31T07:55:15.539Z,13.24
2023-03-31T07:57:43.682Z,13.27
2023-03-31T08:00:12.693Z,13.32
2023-03-31T08:02:42.911Z,13.34
2023-03-31T08:05:12.007Z,13.37
2023-03-31T08:07:41.764Z,13.44
2023-03-31T08:10:11.099Z,13.51
2023-03-31T08:12:37.685Z,13.55
2023-03-31T08:15:04.965Z,13.59
2023-03-31T08:17:31.634Z,13.61
2023-03-31T08:20:01.597Z,13.65
2023-03-31T08:22:30.604Z,13.75
2023-03-31T08:24:57.156Z,13.85
2023-03-31T08:27:23.808Z,13.87
2023-03-31T08:29:50.421Z,13.93
2023-03-31T08:32:17.175Z,14.02
2023-03-31T08:34:43.940Z,14.10
2023-03-31T08:37:10.548Z,14.19
2023-03-31T08:39:37.351Z,14.33
2023-03-31T08:42:20.215Z,14.46
2023-03-31T08:45:07.245Z,14.51
2023-03-31T08:47:36.685Z,14.65
2023-03-31T08:50:11.362Z,14.77
2023-03-31T08:52:48.016Z,14.88
2023-03-31T08:55:26.649Z,14.88
2023-03-31T08:58:01.628Z,15.02
2023-03-31T09:00:37.741Z,15.14
2023-03-31T09:03:16.466Z,15.20
2023-03-31T09:06:13.027Z,15.27
2023-03-31T09:08:42.159Z,15.34
2023-03-31T09:11:42.560Z,15.34
2023-03-31T09:14:12.036Z,15.37
2023-03-31T09:16:53.816Z,15.51
2023-03-31T09:19:35.799Z,15.53
2023-03-31T09:22:05.871Z,15.63
2023-03-31T09:24:47.665Z,15.79
2023-03-31T09:27:15.336Z,15.98
2023-03-31T09:30:09.510Z,16.04
2023-03-31T09:32:38.312Z,16.07
2023-03-31T09:35:25.407Z,16.23
2023-03-31T09:37:54.035Z,16.28
2023-03-31T09:40:24.143Z,16.33
2023-03-31T09:43:00.500Z,16.27
2023-03-31T09:45:27.952Z,16.39
2023-03-31T09:47:57.469Z,16.55
2023-03-31T09:50:25.522Z,16.70
2023-03-31T09:52:55.840Z,16.78
2023-03-31T09:55:38.144Z,16.88
2023-03-31T09:58:08.203Z,17.07
2023-03-31T10:00:35.246Z,17.19
2023-03-31T10:03:07.411Z,17.22
2023-03-31T10:05:41.327Z,17.25
2023-03-31T10:08:17.279Z,17.39
2023-03-31T10:11:04.196Z,17.49
2023-03-31T10:13:59.808Z,17.58
2023-03-31T10:16:45.716Z,17.73
2023-03-31T10:19:25.998Z,17.80
2023-03-31T10:22:17.011Z,17.76
2023-03-31T10:24:45.478Z,17.82
2023-03-31T10:27:20.140Z,17.96
2023-03-31T10:29:47.239Z,18.08
2023-03-31T10:32:16.784Z,18.25
2023-03-31T10:34:43.740Z,18.32
2023-03-31T10:37:22.606Z,18.13
2023-03-31T10:39:57.945Z,18.02
2023-03-31T10:42:25.675Z,17.80
2023-03-31T10:45:11.240Z,17.68
2023-03-31T10:47:40.642Z,17.58
2023-03-31T10:50:14.899Z,17.41
2023-03-31T10:52:48.402Z,17.49
2023-03-31T10:55:24.490Z,17.60
2023-03-31T10:57:58.909Z,17.71
2023-03-31T11:00:32.916Z,17.87
2023-03-31T11:03:11.401Z,18.02
2023-03-31T11:06:12.299Z,18.26
2023-03-31T11:08:59.093Z,18.42
2023-03-31T11:12:10.053Z,18.66
2023-03-31T11:14:42.625Z,18.95
2023-03-31T11:17:09.288Z,19.10
2023-03-31T11:20:07.222Z,19.29
2023-03-31T11:23:00.311Z,19.43
2023-03-31T11:25:32.927Z,19.54
2023-03-31T11:28:20.716Z,19.72
2023-03-31T11:31:10.323Z,19.70
2023-03-31T11:33:50.371Z,19.50
2023-03-31T11:36:58.660Z,19.15
2023-03-31T11:39:44.904Z,18.89
2023-03-31T11:42:25.649Z,18.67
2023-03-31T11:45:02.591Z,18.51
2023-03-31T11:47:35.067Z,18.50
2023-03-31T11:50:10.743Z,18.30
2023-03-31T11:52:45.880Z,18.30
2023-03-31T11:55:21.562Z,18.84
2023-03-31T11:58:01.048Z,19.34
2023-03-31T12:00:36.384Z,19.89
2023-03-31T12:03:19.825Z,20.36
2023-03-31T12:05:52.094Z,20.50
2023-03-31T12:08:36.832Z,20.49
2023-03-31T12:11:27.780Z,20.36
2023-03-31T12:14:11.892Z,20.36
2023-03-31T12:17:10.789Z,20.67
2023-03-31T12:19:40.356Z,21.06
2023-03-31T12:22:30.737Z,21.16
2023-03-31T12:24:57.380Z,21.62
2023-03-31T12:27:44.576Z,22.03
2023-03-31T12:30:22.526Z,22.55
2023-03-31T12:33:19.794Z,22.53
2023-03-31T12:35:55.423Z,22.66
2023-03-31T12:38:55.781Z,22.92
2023-03-31T12:41:28.381Z,22.53
2023-03-31T12:44:13.073Z,22.54
2023-03-31T12:46:42.693Z,22.73
2023-03-31T12:49:37.079Z,23.13
2023-03-31T12:52:06.573Z,23.55
2023-03-31T12:54:45.013Z,24.03
2023-03-31T12:57:11.583Z,24.29
2023-03-31T12:59:41.560Z,24.62
2023-03-31T13:02:26.732Z,23.91
2023-03-31T13:04:53.469Z,23.28
2023-03-31T13:07:29.204Z,22.85
2023-03-31T13:10:21.577Z,22.82
2023-03-31T13:13:02.106Z,22.71
2023-03-31T13:15:30.261Z,22.73
2023-03-31T13:18:03.266Z,22.89
2023-03-31T13:20:42.867Z,23.26
2023-03-31T13:23:12.186Z,23.46
2023-03-31T13:25:44.047Z,24.01
2023-03-31T13:28:13.934Z,24.47
2023-03-31T13:30:40.776Z,23.97
2023-03-31T13:33:31.855Z,23.71
2023-03-31T13:36:04.333Z,23.16
2023-03-31T13:39:03.675Z,22.13
2023-03-31T13:41:54.694Z,21.29
2023-03-31T13:44:40.085Z,20.68
2023-03-31T13:47:18.239Z,20.10
2023-03-31T13:49:52.947Z,19.77
2023-03-31T13:52:39.782Z,19.55
2023-03-31T13:55:43.954Z,19.36
2023-03-31T13:58:29.497Z,19.29
2023-03-31T14:01:15.475Z,19.20
2023-03-31T14:04:19.463Z,19.15
2023-03-31T14:06:54.734Z,19.11
2023-03-31T14:09:30.006Z,19.08
2023-03-31T14:12:00.051Z,18.91
2023-03-31T14:14:28.021Z,18.83
2023-03-31T14:16:56.741Z,18.79
2023-03-31T14:20:10.996Z,18.73
2023-03-31T14:22:48.209Z,18.83
2023-03-31T14:25:36.325Z,19.36
2023-03-31T14:28:34.750Z,20.29
2023-03-31T14:31:41.243Z,21.22
2023-03-31T14:34:12.126Z,21.66
2023-03-31T14:36:57.960Z,21.80
2023-03-31T14:39:29.558Z,21.94
2023-03-31T14:42:02.531Z,21.78
2023-03-31T14:44:30.194Z,21.91
2023-03-31T14:46:58.525Z,21.99
2023-03-31T14:49:28.579Z,22.43
2023-03-31T14:52:00.880Z,22.76
2023-03-31T14:54:27.465Z,22.76
2023-03-31T14:56:58.561Z,22.21
2023-03-31T14:59:29.314Z,21.85
2023-03-31T15:01:58.779Z,21.35
2023-03-31T15:04:41.333Z,21.10
2023-03-31T15:07:08.869Z,20.90
2023-03-31T15:09:36.486Z,20.86
2023-03-31T15:12:06.767Z,20.88
2023-03-31T15:14:41.173Z,20.92
2023-03-31T15:17:18.055Z,20.91
2023-03-31T15:19:44.764Z,20.99
2023-03-31T15:22:16.387Z,20.61
2023-03-31T15:24:42.999Z,20.18
2023-03-31T15:27:55.877Z,19.52
2023-03-31T15:30:25.734Z,19.05
2023-03-31T15:32:56.838Z,18.63
2023-03-31T15:35:33.168Z,18.22
2023-03-31T15:38:01.960Z,18.09
2023-03-31T15:40:31.434Z,17.98
2023-03-31T15:43:13.509Z,17.87
2023-03-31T15:45:54.818Z,17.51
2023-03-31T15:48:26.058Z,17.34
2023-03-31T15:50:53.294Z,17.24
2023-03-31T15:53:28.488Z,17.22
2023-03-31T15:56:02.303Z,17.18
2023-03-31T15:58:53.432Z,17.08
2023-03-31T16:01:20.951Z,17.00
2023-03-31T16:03:47.953Z,16.94
2023-03-31T16:06:36.891Z,16.78
2023-03-31T16:09:09.468Z,16.62
2023-03-31T16:11:43.988Z,16.54
2023-03-31T16:14:18.779Z,16.47
2023-03-31T16:16:52.873Z,16.33
2023-03-31T16:19:22.310Z,16.15
2023-03-31T16:21:52.767Z,16.01
2023-03-31T16:24:21.401Z,15.91
2023-03-31T16:26:49.033Z,15.80
2023-03-31T16:29:22.445Z,15.68
2023-03-31T16:31:49.587Z,15.60
2023-03-31T16:34:16.737Z,15.55
2023-03-31T16:36:43.401Z,15.48
2023-03-31T16:39:10.031Z,15.42
2023-03-31T16:41:38.106Z,15.35
2023-03-31T16:44:06.422Z,15.31
2023-03-31T16:46:33.415Z,15.30
2023-03-31T16:49:00.161Z,15.24
2023-03-31T16:51:26.792Z,15.21
2023-03-31T16:53:53.434Z,15.16
2023-03-31T16:56:20.236Z,15.14
2023-03-31T16:58:46.966Z,15.13
2023-03-31T17:01:13.600Z,15.08
2023-03-31T17:03:42.258Z,15.03
2023-03-31T17:06:12.101Z,14.94
2023-03-31T17:08:39.948Z,14.85
2023-03-31T17:11:11.723Z,14.79
2023-03-31T17:13:39.989Z,14.70
2023-03-31T17:16:17.524Z,14.63
2023-03-31T17:18:46.003Z,14.58
2023-03-31T17:21:15.036Z,14.52
2023-03-31T17:23:42.596Z,14.45
2023-03-31T17:26:10.599Z,14.34
2023-03-31T17:28:37.622Z,14.28
2023-03-31T17:31:18.911Z,14.22
2023-03-31T17:33:46.289Z,14.16
2023-03-31T17:36:13.472Z,14.13
2023-03-31T17:38:40.425Z,14.12
2023-03-31T17:41:09.051Z,14.16
2023-03-31T17:43:36.147Z,14.17
2023-03-31T17:46:13.805Z,14.18
2023-03-31T17:48:41.179Z,14.14
2023-03-31T17:51:10.328Z,14.11
2023-03-31T17:53:37.139Z,14.10
2023-03-31T17:56:04.660Z,14.08
2023-03-31T17:58:32.320Z,14.09
2023-03-31T18:00:59.357Z,14.09
2023-03-31T18:03:29.243Z,14.09
2023-03-31T18:05:55.855Z,14.05
2023-03-31T18:08:23.099Z,14.02
2023-03-31T18:10:50.595Z,14.03
2023-03-31T18:13:17.506Z,14.01
2023-03-31T18:15:51.571Z,14.02
2023-03-31T18:18:19.330Z,14.00
2023-03-31T18:20:46.136Z,13.96
2023-03-31T18:23:13.050Z,13.91
2023-03-31T18:25:45.265Z,13.87
2023-03-31T18:28:16.107Z,13.85
2023-03-31T18:30:43.584Z,13.80
2023-03-31T18:33:11.047Z,13.78
2023-03-31T18:35:38.061Z,13.73
2023-03-31T18:38:05.483Z,13.72
2023-03-31T18:40:32.367Z,13.70
2023-03-31T18:42:58.956Z,13.67
2023-03-31T18:45:28.018Z,13.62
2023-03-31T18:47:54.953Z,13.60
2023-03-31T18:50:23.306Z,13.61
2023-03-31T18:52:52.426Z,13.58
2023-03-31T18:55:19.376Z,13.54
2023-03-31T18:57:46.050Z,13.51
2023-03-31T19:00:13.116Z,13.51
2023-03-31T19:02:40.086Z,13.49
2023-03-31T19:05:07.061Z,13.48
2023-03-31T19:07:34.040Z,13.45
2023-03-31T19:10:00.637Z,13.41
2023-03-31T19:12:27.338Z,13.40
2023-03-31T19:14:53.913Z,13.36
2023-03-31T19:17:20.468Z,13.34
2023-03-31T19:19:47.755Z,13.35
2023-03-31T19:22:14.351Z,13.31
2023-03-31T19:24:40.978Z,13.25
2023-03-31T19:27:10.671Z,13.20
2023-03-31T19:29:37.237Z,13.18
2023-03-31T19:32:04.326Z,13.10
2023-03-31T19:34:31.000Z,13.03
2023-03-31T19:36:57.896Z,12.97
2023-03-31T19:39:25.920Z,12.92
2023-03-31T19:41:52.480Z,12.81
2023-03-31T19:44:19.033Z,12.70
2023-03-31T19:46:48.154Z,12.59
2023-03-31T19:49:15.390Z,12.49
2023-03-31T19:51:42.041Z,12.37
2023-03-31T19:54:11.456Z,12.34
2023-03-31T19:56:38.346Z,12.30
2023-03-31T19:59:05.953Z,12.21
2023-03-31T20:01:32.798Z,12.15
2023-03-31T20:03:59.745Z,12.11
2023-03-31T20:06:28.540Z,12.02
2023-03-31T20:08:57.434Z,11.93
2023-03-31T20:11:26.166Z,11.87
2023-03-31T20:13:53.835Z,11.81
2023-03-31T20:16:22.861Z,11.71
2023-03-31T20:19:05.085Z,11.63
2023-03-31T20:21:34.565Z,11.54
2023-03-31T20:24:01.420Z,11.51
2023-03-31T20:26:30.194Z,11.49
2023-03-31T20:28:58.214Z,11.46
2023-03-31T20:31:28.206Z,11.39
2023-03-31T20:33:55.575Z,11.35
2023-03-31T20:36:25.660Z,11.33
2023-03-31T20:38:53.937Z,11.25
2023-03-31T20:41:23.899Z,11.18
2023-03-31T20:43:50.683Z,11.14
2023-03-31T20:46:17.708Z,11.10
2023-03-31T20:48:47.789Z,11.08
2023-03-31T20:51:17.430Z,11.09
2023-03-31T20:53:46.806Z,11.06
2023-03-31T20:56:19.799Z,11.06
2023-03-31T20:58:47.767Z,11.05
2023-03-31T21:01:15.062Z,11.09
2023-03-31T21:03:42.360Z,11.07
2023-03-31T21:06:12.248Z,11.03
2023-03-31T21:08:40.947Z,11.01
2023-03-31T21:11:08.340Z,11.01
2023-03-31T21:13:35.094Z,10.98
2023-03-31T21:16:02.274Z,10.94
2023-03-31T21:18:29.920Z,10.91
2023-03-31T21:21:04.428Z,10.86
2023-03-31T21:23:31.846Z,10.86
2023-03-31T21:26:01.289Z,10.84
2023-03-31T21:28:31.227Z,10.82
2023-03-31T21:31:03.672Z,10.78
2023-03-31T21:33:31.839Z,10.76
2023-03-31T21:35:59.132Z,10.76
2023-03-31T21:38:27.904Z,10.70
2023-03-31T21:40:55.853Z,10.64
2023-03-31T21:43:23.608Z,10.57
2023-03-31T21:45:53.343Z,10.54
2023-03-31T21:48:25.160Z,10.56
2023-03-31T21:50:54.658Z,10.53
2023-03-31T21:53:22.902Z,10.51
2023-03-31T21:55:55.389Z,10.44
2023-03-31T21:58:28.463Z,10.37
2023-03-31T22:00:56.184Z,10.36
2023-03-31T22:03:27.700Z,10.39
2023-03-31T22:05:58.670Z,10.41
2023-03-31T22:08:27.170Z,10.41
2023-03-31T22:10:55.879Z,10.37
2023-03-31T22:13:23.601Z,10.31
2023-03-31T22:15:50.850Z,10.26
2023-03-31T22:18:17.887Z,10.26
2023-03-31T22:20:46.289Z,10.19
2023-03-31T22:23:13.072Z,10.17
2023-03-31T22:25:39.662Z,10.07
2023-03-31T22:28:07.527Z,10.06
2023-03-31T22:30:34.227Z,10.00
2023-03-31T22:33:01.426Z,9.95
2023-03-31T22:35:28.626Z,9.94
2023-03-31T22:37:55.643Z,9.94
2023-03-31T22:40:22.463Z,9.97
2023-03-31T22:42:49.068Z,9.97
2023-03-31T22:45:15.815Z,9.99
2023-03-31T22:47:42.579Z,10.01
2023-03-31T22:50:11.480Z,10.01
2023-03-31T22:52:38.091Z,9.98
2023-03-31T22:55:06.251Z,9.99
2023-03-31T22:57:33.265Z,9.97
2023-03-31T22:59:59.993Z,9.96
2023-03-31T23:02:26.689Z,9.93
2023-03-31T23:04:53.274Z,9.92
2023-03-31T23:07:21.871Z,9.88
2023-03-31T23:09:48.782Z,9.85
2023-03-31T23:12:15.521Z,9.78
2023-03-31T23:14:42.128Z,9.72
2023-03-31T23:17:08.735Z,9.69
2023-03-31T23:19:35.514Z,9.65
2023-03-31T23:22:02.639Z,9.60
2023-03-31T23:24:30.083Z,9.53
2023-03-31T23:26:56.719Z,9.47
2023-03-31T23:29:23.375Z,9.40
2023-03-31T23:31:50.060Z,9.36
2023-03-31T23:34:17.083Z,9.32
2023-03-31T23:36:43.641Z,9.26
2023-03-31T23:39:10.677Z,9.20
2023-03-31T23:41:37.256Z,9.21
2023-03-31T23:44:04.820Z,9.24
2023-03-31T23:46:31.896Z,9.21
2023-03-31T23:48:59.087Z,9.19
2023-03-31T23:51:26.176Z,9.19
2023-03-31T23:53:52.916Z,9.25
2023-03-31T23:56:19.903Z,9.29
2023-03-31T23:58:47.121Z,9.30
